createdAt,value
2018-06-03T00:00:29.830Z,98.43
2018-06-03T00:01:29.829Z,99.05
2018-06-03T00:02:29.824Z,99.24
2018-06-03T00:03:29.827Z,98.19
2018-06-03T00:04:29.818Z,98.28
2018-06-03T00:05:29.816Z,99.34
2018-06-03T00:06:29.812Z,98.76
2018-06-03T00:07:29.833Z,99.53
2018-06-03T00:08:29.806Z,99.43
2018-06-03T00:09:29.804Z,98.86
2018-06-03T00:10:29.801Z,98.96
2018-06-03T00:11:29.804Z,98.96
2018-06-03T00:12:29.792Z,99.99
2018-06-03T00:13:29.788Z,98.57
2018-06-03T00:14:29.788Z,97.42
2018-06-03T00:15:29.784Z,98.19
2018-06-03T00:16:29.781Z,99.43
2018-06-03T00:17:29.785Z,98.86
2018-06-03T00:18:29.775Z,98.19
2018-06-03T00:19:29.771Z,97.33
2018-06-03T00:20:29.771Z,97.42
2018-06-03T00:21:29.765Z,96.66
2018-06-03T00:22:29.764Z,95.89
2018-06-03T00:23:29.760Z,94.93
2018-06-03T00:24:29.756Z,94.64
2018-06-03T00:25:29.753Z,93.59
2018-06-03T00:26:29.750Z,91.96
2018-06-03T00:27:29.750Z,92.92
2018-06-03T00:28:29.748Z,93.69
2018-06-03T00:29:29.744Z,93.02
2018-06-03T00:30:29.741Z,93.49
2018-06-03T00:31:29.737Z,92.92
2018-06-03T00:32:29.729Z,92.15
2018-06-03T00:33:29.730Z,91.39
2018-06-03T00:34:29.722Z,91.19
2018-06-03T00:35:29.720Z,91.49
2018-06-03T00:36:29.719Z,92.25
2018-06-03T00:37:29.713Z,91.77
2018-06-03T00:38:29.710Z,92.92
2018-06-03T00:39:29.709Z,92.92
2018-06-03T00:40:29.738Z,93.69
2018-06-03T00:41:29.704Z,92.73
2018-06-03T00:42:29.693Z,91.77
2018-06-03T00:43:29.731Z,92.44
2018-06-03T00:44:29.710Z,91.29
2018-06-03T00:45:29.689Z,92.54
2018-06-03T00:46:29.691Z,92.25
2018-06-03T00:47:29.681Z,91.58
2018-06-03T00:48:29.678Z,93.02
2018-06-03T00:49:29.677Z,93.69
2018-06-03T00:50:29.678Z,93.59
2018-06-03T00:51:29.668Z,93.02
2018-06-03T00:52:29.664Z,93.78
2018-06-03T00:53:29.663Z,94.84
2018-06-03T00:54:29.663Z,94.35
2018-06-03T00:55:29.662Z,95.60
2018-06-03T00:56:29.652Z,94.64
2018-06-03T00:57:29.650Z,95.22
2018-06-03T00:58:29.654Z,93.49
2018-06-03T00:59:29.644Z,93.69
2018-06-03T01:00:29.645Z,92.73
2018-06-03T01:01:29.663Z,92.73
2018-06-03T01:02:29.630Z,93.21
2018-06-03T01:03:29.631Z,91.49
2018-06-03T01:04:29.617Z,90.72
2018-06-03T01:05:29.626Z,90.62
2018-06-03T01:06:29.623Z,89.76
2018-06-03T01:07:29.620Z,89.37
2018-06-03T01:08:29.609Z,88.51
2018-06-03T01:09:29.608Z,87.61
2018-06-03T01:10:29.602Z,86.21
2018-06-03T01:11:29.613Z,85.64
2018-06-03T01:12:29.596Z,86.36
2018-06-03T01:13:29.591Z,85.50
2018-06-03T01:14:29.593Z,84.74
2018-06-03T01:15:29.591Z,84.55
2018-06-03T01:16:29.581Z,83.20
2018-06-03T01:17:29.581Z,81.29
2018-06-03T01:18:29.576Z,80.24
2018-06-03T01:19:29.574Z,79.08
2018-06-03T01:20:29.570Z,78.61
2018-06-03T01:21:29.566Z,78.89
2018-06-03T01:22:29.567Z,78.42
2018-06-03T01:23:29.568Z,78.80
2018-06-03T01:24:29.567Z,79.66
2018-06-03T01:25:29.554Z,80.62
2018-06-03T01:26:29.547Z,79.66
2018-06-03T01:27:29.545Z,79.28
2018-06-03T01:28:29.546Z,79.66
2018-06-03T01:29:29.544Z,80.43
2018-06-03T01:30:29.536Z,82.06
2018-06-03T02:02:59.466Z,84.55
2018-06-03T02:03:59.439Z,83.20
2018-06-03T02:05:52.361Z,82.15
2018-06-03T02:06:52.335Z,81.48
2018-06-03T02:08:45.296Z,79.57
2018-06-03T02:09:45.275Z,79.14
2018-06-03T02:11:38.217Z,77.23
2018-06-03T02:12:38.173Z,75.60
2018-06-03T02:14:31.127Z,74.07
2018-06-03T02:15:31.069Z,75.41
2018-06-03T02:17:23.951Z,75.83
2018-06-03T02:18:23.940Z,79.75
2018-06-03T02:20:17.871Z,79.85
2018-06-03T02:21:17.848Z,80.81
2018-06-03T02:23:10.813Z,79.75
2018-06-03T02:24:10.792Z,78.66
2018-06-03T02:26:03.781Z,78.22
2018-06-03T02:27:03.752Z,80.14
2018-06-03T02:28:56.657Z,82.82
2018-06-03T02:29:56.651Z,83.49
2018-06-03T02:31:49.561Z,83.49
2018-06-03T02:32:49.537Z,84.55
2018-06-03T02:34:42.484Z,86.55
2018-06-03T02:35:42.467Z,85.21
2018-06-03T02:37:35.377Z,83.78
2018-06-03T02:38:35.346Z,83.20
2018-06-03T02:41:19.352Z,79.66
2018-06-03T02:42:19.319Z,80.62
2018-06-03T02:44:12.242Z,81.96
2018-06-03T02:45:12.228Z,82.34
2018-06-03T02:47:05.181Z,85.31
2018-06-03T02:48:05.155Z,85.50
2018-06-03T02:49:58.057Z,85.50
2018-06-03T02:50:58.050Z,83.59
2018-06-03T02:52:51.007Z,80.52
2018-06-03T02:53:50.975Z,78.38
2018-06-03T02:55:44.001Z,74.93
2018-06-03T02:56:43.959Z,71.77
2018-06-03T02:58:37.003Z,68.62
2018-06-03T02:59:36.972Z,68.04
2018-06-03T03:01:29.926Z,66.51
2018-06-03T03:02:29.905Z,65.84
2018-06-03T03:04:22.915Z,65.17
2018-06-03T03:05:22.889Z,65.84
2018-06-03T03:07:15.819Z,64.98
2018-06-03T03:08:15.793Z,64.50
2018-06-03T03:10:08.711Z,65.65
2018-06-03T03:11:08.705Z,66.32
2018-06-03T03:13:01.630Z,65.74
2018-06-03T03:14:01.604Z,65.65
2018-06-03T03:15:54.560Z,66.41
2018-06-03T03:16:54.530Z,66.22
2018-06-03T03:18:47.497Z,68.33
2018-06-03T03:19:47.492Z,67.27
2018-06-03T03:21:40.499Z,64.69
2018-06-03T03:22:40.480Z,63.99
2018-06-03T03:24:33.509Z,62.17
2018-06-03T03:25:33.490Z,62.49
2018-06-03T03:27:26.416Z,62.40
2018-06-03T03:28:26.381Z,63.35
2018-06-03T03:30:19.327Z,62.68
2018-06-03T03:31:19.310Z,64.40
2018-06-03T03:33:12.214Z,65.45
2018-06-03T03:34:12.189Z,68.13
2018-06-03T03:36:05.161Z,70.72
2018-06-03T03:37:05.149Z,74.11
2018-06-03T03:38:58.061Z,78.99
2018-06-03T03:39:58.033Z,80.14
2018-06-03T03:41:51.038Z,83.78
2018-06-03T03:42:51.018Z,84.74
2018-06-03T03:44:44.011Z,86.69
2018-06-03T03:45:44.005Z,89.04
2018-06-03T03:47:36.998Z,90.81
2018-06-03T03:48:36.965Z,91.29
2018-06-03T03:50:29.869Z,93.59
2018-06-03T03:51:29.860Z,96.18
2018-06-03T03:53:22.797Z,98.57
2018-06-03T03:54:22.770Z,99.91
2018-06-03T03:56:15.736Z,99.99
2018-06-03T03:57:15.719Z,99.99
2018-06-03T03:59:59.739Z,99.99
2018-06-03T04:00:59.721Z,99.99
2018-06-03T04:02:52.651Z,99.99
2018-06-03T04:03:52.628Z,99.99
2018-06-03T04:05:45.534Z,99.99
2018-06-03T04:06:45.518Z,99.99
2018-06-03T04:09:29.537Z,99.99
2018-06-03T04:10:29.517Z,99.99
2018-06-03T04:12:22.417Z,99.99
2018-06-03T04:13:22.394Z,99.99
2018-06-03T04:15:15.309Z,99.99
2018-06-03T04:16:15.288Z,99.99
2018-06-03T04:18:08.312Z,99.99
2018-06-03T04:19:08.294Z,99.99
2018-06-03T04:21:01.219Z,99.99
2018-06-03T04:22:01.205Z,99.99
2018-06-03T04:23:54.175Z,99.99
2018-06-03T04:24:54.130Z,99.99
2018-06-03T04:26:47.021Z,99.99
2018-06-03T04:27:47.001Z,99.99
2018-06-03T04:29:39.907Z,99.99
2018-06-03T04:30:39.887Z,99.99
2018-06-03T04:32:32.851Z,99.99
2018-06-03T04:33:32.833Z,99.99
2018-06-03T04:35:25.774Z,99.99
2018-06-03T04:36:25.761Z,99.99
2018-06-03T04:38:18.681Z,99.99
2018-06-03T04:39:18.669Z,99.99
2018-06-03T04:41:11.591Z,99.99
2018-06-03T04:42:11.580Z,99.99
2018-06-03T04:44:04.558Z,99.99
2018-06-03T04:45:04.539Z,99.99
2018-06-03T04:46:57.546Z,99.99
2018-06-03T04:47:57.537Z,99.99
2018-06-03T04:49:50.478Z,99.99
2018-06-03T04:50:50.456Z,99.99
2018-06-03T04:52:43.423Z,99.99
2018-06-03T04:53:43.417Z,99.99
2018-06-03T04:55:36.356Z,99.99
2018-06-03T04:56:36.340Z,99.99
2018-06-03T04:58:29.359Z,99.99
2018-06-03T04:59:29.332Z,99.99
2018-06-03T05:01:22.312Z,99.99
2018-06-03T05:02:22.302Z,99.99
2018-06-03T05:04:15.271Z,99.99
2018-06-03T05:05:15.252Z,99.99
2018-06-03T05:07:08.226Z,99.99
2018-06-03T05:08:08.211Z,99.99
2018-06-03T05:10:01.183Z,99.99
2018-06-03T05:11:01.164Z,99.99
2018-06-03T05:12:54.114Z,99.99
2018-06-03T05:13:54.107Z,99.99
2018-06-03T05:15:47.083Z,99.99
2018-06-03T05:16:47.052Z,99.99
2018-06-03T05:18:41.073Z,99.99
2018-06-03T05:19:41.048Z,99.99
2018-06-03T05:21:33.954Z,99.99
2018-06-03T05:22:33.955Z,99.99
2018-06-03T05:24:26.975Z,99.99
2018-06-03T05:25:26.959Z,99.99
2018-06-03T05:27:19.859Z,99.99
2018-06-03T05:28:19.852Z,99.99
2018-06-03T05:30:12.859Z,99.99
2018-06-03T05:31:12.842Z,99.99
2018-06-03T05:33:05.779Z,99.99
2018-06-03T05:34:05.767Z,99.99
2018-06-03T05:35:58.802Z,99.99
2018-06-03T05:36:58.777Z,99.99
2018-06-03T05:38:51.710Z,99.99
2018-06-03T05:39:51.685Z,99.99
2018-06-03T05:41:44.623Z,99.99
2018-06-03T05:42:44.608Z,99.99
2018-06-03T05:44:37.561Z,99.99
2018-06-03T05:45:37.532Z,99.99
2018-06-03T05:47:30.485Z,99.99
2018-06-03T05:48:30.475Z,99.99
2018-06-03T05:50:23.470Z,99.99
2018-06-03T05:51:23.451Z,99.99
2018-06-03T05:53:16.359Z,99.99
2018-06-03T05:54:16.347Z,99.99
2018-06-03T05:56:09.282Z,99.99
2018-06-03T05:57:09.255Z,99.99
2018-06-03T05:59:02.238Z,99.99
2018-06-03T06:00:02.207Z,99.99
2018-06-03T06:01:55.134Z,99.99
2018-06-03T06:02:55.110Z,99.99
2018-06-03T06:04:48.054Z,99.99
2018-06-03T06:05:48.044Z,99.99
2018-06-03T06:07:40.979Z,99.99
2018-06-03T06:08:40.969Z,99.99
2018-06-03T06:10:33.884Z,99.99
2018-06-03T06:11:33.866Z,99.99
2018-06-03T06:13:26.843Z,99.99
2018-06-03T06:14:26.836Z,99.99
2018-06-03T06:16:19.753Z,99.99
2018-06-03T06:17:19.749Z,99.99
2018-06-03T06:19:12.737Z,99.99
2018-06-03T06:20:12.761Z,99.99
2018-06-03T06:22:05.661Z,99.99
2018-06-03T06:23:05.643Z,99.99
2018-06-03T06:24:58.569Z,99.99
2018-06-03T06:25:58.545Z,99.99
2018-06-03T06:27:51.511Z,99.99
2018-06-03T06:28:51.498Z,99.99
2018-06-03T06:30:44.407Z,99.99
2018-06-03T06:31:44.392Z,99.99
2018-06-03T06:33:37.347Z,99.99
2018-06-03T06:34:37.339Z,99.99
2018-06-03T06:36:30.359Z,99.99
2018-06-03T06:37:30.341Z,99.99
2018-06-03T06:39:23.349Z,99.99
2018-06-03T06:40:23.335Z,99.99
2018-06-03T06:42:16.286Z,99.99
2018-06-03T06:43:16.260Z,99.99
2018-06-03T06:45:09.185Z,99.99
2018-06-03T06:46:09.171Z,99.99
2018-06-03T06:48:02.113Z,99.99
2018-06-03T06:49:02.105Z,98.97
2018-06-03T06:50:55.069Z,99.99
2018-06-03T06:51:55.061Z,99.99
2018-06-03T06:53:48.038Z,99.99
2018-06-03T06:54:48.034Z,99.99
2018-06-03T06:56:41.995Z,99.99
2018-06-03T06:57:40.921Z,96.46
2018-06-03T06:59:33.863Z,92.74
2018-06-03T07:00:33.846Z,97.91
2018-06-03T07:02:26.818Z,85.29
2018-06-03T07:03:26.796Z,83.64
2018-06-03T07:05:19.833Z,87.41
2018-06-03T07:06:19.806Z,93.08
2018-06-03T07:08:12.808Z,84.03
2018-06-03T07:09:12.809Z,83.45
2018-06-03T07:11:05.829Z,82.43
2018-06-03T07:12:05.810Z,79.24
2018-06-03T07:13:58.830Z,76.28
2018-06-03T07:14:58.830Z,78.25
2018-06-03T07:16:51.893Z,77.03
2018-06-03T07:17:51.865Z,75.67
2018-06-03T07:19:44.823Z,77.51
2018-06-03T07:20:44.821Z,76.87
2018-06-03T07:22:37.806Z,73.15
2018-06-03T07:23:37.804Z,74.45
2018-06-03T07:25:30.838Z,72.74
2018-06-03T07:26:30.841Z,72.55
2018-06-03T07:28:23.849Z,77.86
2018-06-03T07:29:23.843Z,79.17
2018-06-03T07:31:16.837Z,75.81
2018-06-03T07:32:16.829Z,75.81
2018-06-03T07:34:09.766Z,73.86
2018-06-03T07:35:09.770Z,74.54
2018-06-03T07:37:02.772Z,73.36
2018-06-03T07:38:02.767Z,71.86
2018-06-03T07:39:55.735Z,71.80
2018-06-03T07:40:55.738Z,72.93
2018-06-03T07:42:48.703Z,67.47
2018-06-03T07:43:48.700Z,67.38
2018-06-03T07:45:41.655Z,69.48
2018-06-03T07:46:41.655Z,70.09
2018-06-03T07:48:34.655Z,67.54
2018-06-03T07:49:34.651Z,65.89
2018-06-03T07:51:27.659Z,68.79
2018-06-03T07:52:27.656Z,69.38
2018-06-03T07:54:20.650Z,67.54
2018-06-03T07:55:20.661Z,66.63
2018-06-03T07:57:13.671Z,64.17
2018-06-03T07:58:13.664Z,62.54
2018-06-03T08:00:06.651Z,66.92
2018-06-03T08:01:06.646Z,66.47
2018-06-03T08:02:59.671Z,67.86
2018-06-03T08:03:59.660Z,69.08
2018-06-03T08:05:52.655Z,70.99
2018-06-03T08:06:52.646Z,70.51
2018-06-03T08:08:45.659Z,68.15
2018-06-03T08:09:45.655Z,68.54
2018-06-03T08:11:38.692Z,68.48
2018-06-03T08:12:38.688Z,70.16
2018-06-03T08:14:31.639Z,67.44
2018-06-03T08:15:31.649Z,66.56
2018-06-03T08:17:24.711Z,67.05
2018-06-03T08:18:24.699Z,68.44
2018-06-03T08:20:17.686Z,66.56
2018-06-03T08:21:17.700Z,62.74
2018-06-03T08:23:10.696Z,65.63
2018-06-03T08:24:10.696Z,65.50
2018-06-03T08:26:03.678Z,68.12
2018-06-03T08:27:03.662Z,68.96
2018-06-03T08:28:56.701Z,64.69
2018-06-03T08:29:56.697Z,65.08
2018-06-03T08:31:49.709Z,64.59
2018-06-03T08:32:49.703Z,63.26
2018-06-03T08:34:42.698Z,65.08
2018-06-03T08:35:42.704Z,64.39
2018-06-03T08:37:35.673Z,63.35
2018-06-03T08:38:35.669Z,64.17
2018-06-03T08:40:28.695Z,67.15
2018-06-03T08:41:28.705Z,68.93
2018-06-03T08:43:21.664Z,68.02
2018-06-03T08:44:21.662Z,66.50
2018-06-03T08:46:14.657Z,66.17
2018-06-03T08:47:14.660Z,67.76
2018-06-03T08:48:14.682Z,67.08
2018-06-03T08:49:14.700Z,67.41
2018-06-03T08:50:14.716Z,66.21
2018-06-03T08:51:14.732Z,66.99
2018-06-03T08:52:14.753Z,67.11
2018-06-03T08:53:14.768Z,67.05
2018-06-03T08:54:14.785Z,69.42
2018-06-03T08:55:14.809Z,67.38
2018-06-03T08:56:14.822Z,65.43
2018-06-03T08:57:14.915Z,63.94
2018-06-03T08:58:14.862Z,63.06
2018-06-03T08:59:14.871Z,62.22
2018-06-03T09:00:14.891Z,61.40
2018-06-03T09:01:14.912Z,60.42
2018-06-03T09:02:14.936Z,61.21
2018-06-03T09:03:14.954Z,61.57
2018-06-03T09:04:14.971Z,62.31
2018-06-03T09:05:14.981Z,62.83
2018-06-03T09:06:15.010Z,62.63
2018-06-03T09:07:15.026Z,60.10
2018-06-03T09:08:15.049Z,60.56
2018-06-03T09:09:15.052Z,60.44
2018-06-03T09:10:15.085Z,60.63
2018-06-03T09:11:15.112Z,60.82
2018-06-03T09:12:15.120Z,60.20
2018-06-03T09:13:15.138Z,59.52
2018-06-03T09:14:15.160Z,61.18
2018-06-03T09:15:15.178Z,60.36
2018-06-03T09:16:15.201Z,61.31
2018-06-03T09:17:15.219Z,61.28
2018-06-03T09:18:15.236Z,62.32
2018-06-03T09:19:15.271Z,61.51
2018-06-03T09:20:15.276Z,61.63
2018-06-03T09:21:15.288Z,61.24
2018-06-03T09:22:15.315Z,59.75
2018-06-03T09:23:15.337Z,61.96
2018-06-03T09:24:15.352Z,61.08
2018-06-03T09:25:15.370Z,62.38
2018-06-03T09:26:15.388Z,62.16
2018-06-03T09:27:15.413Z,62.57
2018-06-03T09:28:15.427Z,61.57
2018-06-03T09:29:15.445Z,62.09
2018-06-03T09:30:15.466Z,59.52
2018-06-03T09:31:15.481Z,61.57
2018-06-03T09:32:15.495Z,60.72
2018-06-03T09:33:15.529Z,59.91
2018-06-03T09:34:15.533Z,56.16
2018-06-03T09:35:15.556Z,56.95
2018-06-03T09:36:15.587Z,56.43
2018-06-03T09:37:15.588Z,56.46
2018-06-03T09:38:15.605Z,57.01
2018-06-03T09:39:15.615Z,60.96
2018-06-03T09:40:16.613Z,62.68
2018-06-03T09:41:15.658Z,65.20
2018-06-03T09:42:15.678Z,64.11
2018-06-03T09:43:15.693Z,63.75
2018-06-03T09:44:15.713Z,63.55
2018-06-03T09:45:15.725Z,65.17
2018-06-03T09:46:15.756Z,60.72
2018-06-03T09:47:15.757Z,58.35
2018-06-03T09:48:15.774Z,56.52
2018-06-03T09:49:15.785Z,58.28
2018-06-03T09:50:15.801Z,60.23
2018-06-03T09:51:15.826Z,60.91
2018-06-03T09:52:15.838Z,58.64
2018-06-03T09:53:15.936Z,57.71
2018-06-03T09:54:15.868Z,59.85
2018-06-03T09:55:15.886Z,60.41
2018-06-03T09:56:15.902Z,59.85
2018-06-03T09:57:15.922Z,60.77
2018-06-03T09:58:15.943Z,60.53
2018-06-03T09:59:15.944Z,61.28
2018-06-03T10:00:15.982Z,62.84
2018-06-03T10:01:15.975Z,63.56
2018-06-03T10:02:15.983Z,63.04
2018-06-03T10:03:16.005Z,62.71
2018-06-03T10:04:16.020Z,62.48
2018-06-03T10:05:16.035Z,60.38
2018-06-03T10:06:16.049Z,59.82
2018-06-03T10:07:16.057Z,59.38
2018-06-03T10:08:16.075Z,62.19
2018-06-03T10:09:17.043Z,58.87
2018-06-03T10:10:16.134Z,58.28
2018-06-03T10:11:16.118Z,57.24
2018-06-03T10:12:16.128Z,54.79
2018-06-03T10:13:16.154Z,53.05
2018-06-03T10:14:16.160Z,55.83
2018-06-03T10:15:16.170Z,57.60
2018-06-03T10:16:16.190Z,58.54
2018-06-03T10:17:16.209Z,57.47
2018-06-03T10:18:16.222Z,58.10
2018-06-03T10:19:16.238Z,58.71
2018-06-03T10:20:16.250Z,57.84
2018-06-03T10:21:16.271Z,57.81
2018-06-03T10:22:16.284Z,54.99
2018-06-03T10:23:16.310Z,58.06
2018-06-03T10:24:16.318Z,60.23
2018-06-03T10:25:16.331Z,57.24
2018-06-03T10:26:16.346Z,54.60
2018-06-03T10:27:16.360Z,54.77
2018-06-03T10:28:16.381Z,55.51
2018-06-03T10:29:16.402Z,52.15
2018-06-03T10:30:16.412Z,52.56
2018-06-03T10:31:16.426Z,52.34
2018-06-03T10:32:16.445Z,56.02
2018-06-03T10:33:16.459Z,54.77
2018-06-03T10:34:16.479Z,56.70
2018-06-03T10:35:16.495Z,54.55
2018-06-03T10:36:16.520Z,55.07
2018-06-03T10:37:16.545Z,56.72
2018-06-03T10:38:16.544Z,57.61
2018-06-03T10:39:16.557Z,59.95
2018-06-03T10:40:16.572Z,58.49
2018-06-03T10:41:16.603Z,59.69
2018-06-03T10:42:16.609Z,60.18
2018-06-03T10:43:16.628Z,58.53
2018-06-03T10:44:16.664Z,59.36
2018-06-03T10:45:16.672Z,58.49
2018-06-03T10:46:16.673Z,59.66
2018-06-03T10:47:16.685Z,59.11
2018-06-03T10:48:16.696Z,61.32
2018-06-03T10:49:16.710Z,59.95
2018-06-03T10:50:16.715Z,61.02
2018-06-03T10:51:16.728Z,62.52
2018-06-03T10:52:16.748Z,62.84
2018-06-03T10:53:16.760Z,63.45
2018-06-03T10:54:16.782Z,62.32
2018-06-03T10:55:16.807Z,62.10
2018-06-03T10:56:16.803Z,64.04
2018-06-03T10:57:16.851Z,64.11
2018-06-03T10:58:16.833Z,62.26
2018-06-03T10:59:16.839Z,64.30
2018-06-03T11:00:16.884Z,64.36
2018-06-03T11:01:16.885Z,64.07
2018-06-03T11:02:16.969Z,64.17
2018-06-03T11:03:16.884Z,63.42
2018-06-03T11:04:16.892Z,62.77
2018-06-03T11:05:16.909Z,63.07
2018-06-03T11:06:16.913Z,62.35
2018-06-03T11:07:16.940Z,61.00
2018-06-03T11:08:16.933Z,60.35
2018-06-03T11:09:16.941Z,61.18
2018-06-03T11:10:16.952Z,60.02
2018-06-03T11:11:16.961Z,60.93
2018-06-03T11:12:16.981Z,62.58
2018-06-03T11:13:16.994Z,63.07
2018-06-03T11:14:17.009Z,63.75
2018-06-03T11:15:17.016Z,63.10
2018-06-03T11:16:17.024Z,62.81
2018-06-03T11:17:17.055Z,63.39
2018-06-03T11:18:17.061Z,63.81
2018-06-03T11:19:17.060Z,61.81
2018-06-03T11:20:17.080Z,62.94
2018-06-03T11:21:17.080Z,63.55
2018-06-03T11:22:17.089Z,61.64
2018-06-03T11:23:17.099Z,61.97
2018-06-03T11:24:17.113Z,62.65
2018-06-03T11:25:17.126Z,62.77
2018-06-03T11:26:17.133Z,59.99
2018-06-03T11:27:17.166Z,61.15
2018-06-03T11:28:17.153Z,60.35
2018-06-03T11:29:17.171Z,62.00
2018-06-03T11:30:17.177Z,61.35
2018-06-03T11:31:17.184Z,61.22
2018-06-03T11:32:17.198Z,62.55
2018-06-03T11:33:17.209Z,62.84
2018-06-03T11:34:17.217Z,61.87
2018-06-03T11:35:17.223Z,61.04
2018-06-03T11:36:17.237Z,62.68
2018-06-03T11:37:17.239Z,63.39
2018-06-03T11:38:17.258Z,62.16
2018-06-03T11:39:17.265Z,62.45
2018-06-03T11:40:17.267Z,61.07
2018-06-03T11:41:17.288Z,61.68
2018-06-03T11:42:17.297Z,61.61
2018-06-03T11:43:17.308Z,61.32
2018-06-03T11:44:17.314Z,59.28
2018-06-03T11:45:17.327Z,58.50
2018-06-03T11:46:17.332Z,59.92
2018-06-03T11:47:17.364Z,61.09
2018-06-03T11:48:17.355Z,60.68
2018-06-03T11:49:17.363Z,62.58
2018-06-03T11:50:17.374Z,61.83
2018-06-03T11:51:17.394Z,59.64
2018-06-03T11:52:17.394Z,59.92
2018-06-03T11:53:17.402Z,61.15
2018-06-03T11:54:17.410Z,58.62
2018-06-03T11:55:17.428Z,57.61
2018-06-03T11:56:17.493Z,57.71
2018-06-03T11:57:17.464Z,58.46
2018-06-03T11:58:17.475Z,59.33
2018-06-03T11:59:17.463Z,60.46
2018-06-03T12:00:17.469Z,59.14
2018-06-03T12:01:17.488Z,59.17
2018-06-03T12:02:17.503Z,59.23
2018-06-03T12:03:17.546Z,58.59
2018-06-03T12:04:17.520Z,58.59
2018-06-03T12:05:17.526Z,58.78
2018-06-03T12:06:17.533Z,58.39
2018-06-03T12:07:17.562Z,57.90
2018-06-03T12:08:17.661Z,60.44
2018-06-03T12:09:17.584Z,58.97
2018-06-03T12:10:17.592Z,60.47
2018-06-03T12:11:17.601Z,60.99
2018-06-03T12:12:17.620Z,61.41
2018-06-03T12:13:17.631Z,57.71
2018-06-03T12:14:17.635Z,56.64
2018-06-03T12:15:17.651Z,56.64
2018-06-03T12:16:17.687Z,56.54
2018-06-03T12:17:17.686Z,56.61
2018-06-03T12:18:17.710Z,55.13
2018-06-03T12:19:17.708Z,56.36
2018-06-03T12:20:17.719Z,57.40
2018-06-03T12:21:17.737Z,58.92
2018-06-03T12:22:17.755Z,59.01
2018-06-03T12:23:17.765Z,58.89
2018-06-03T12:24:17.772Z,57.36
2018-06-03T12:25:17.785Z,58.67
2018-06-03T12:26:17.798Z,58.92
2018-06-03T12:27:17.816Z,58.75
2018-06-03T12:28:17.846Z,57.22
2018-06-03T12:29:17.836Z,59.99
2018-06-03T12:30:17.851Z,60.86
2018-06-03T12:31:17.861Z,60.35
2018-06-03T12:32:17.875Z,61.74
2018-06-03T12:33:17.894Z,61.44
2018-06-03T12:34:17.903Z,58.01
2018-06-03T12:35:17.954Z,59.44
2018-06-03T12:36:17.941Z,60.22
2018-06-03T12:37:17.943Z,60.83
2018-06-03T12:38:17.950Z,60.08
2018-06-03T12:39:17.958Z,60.67
2018-06-03T12:40:17.969Z,59.38
2018-06-03T12:41:17.993Z,59.95
2018-06-03T12:42:18.006Z,61.02
2018-06-03T12:43:18.011Z,59.74
2018-06-03T12:44:18.020Z,61.09
2018-06-03T12:45:18.027Z,60.19
2018-06-03T12:46:18.039Z,61.25
2018-06-03T12:47:18.053Z,61.55
2018-06-03T12:48:18.064Z,61.52
2018-06-03T12:49:18.090Z,62.10
2018-06-03T12:50:18.080Z,61.04
2018-06-03T12:51:18.086Z,61.81
2018-06-03T12:52:18.096Z,61.49
2018-06-03T12:53:18.104Z,62.65
2018-06-03T12:54:18.108Z,63.23
2018-06-03T12:55:18.117Z,62.16
2018-06-03T12:56:18.127Z,62.68
2018-06-03T12:57:18.134Z,62.59
2018-06-03T12:58:18.140Z,61.88
2018-06-03T12:59:18.150Z,62.65
2018-06-03T13:00:18.152Z,63.26
2018-06-03T13:01:18.168Z,61.22
2018-06-03T13:02:18.166Z,64.23
2018-06-03T13:03:18.174Z,62.04
2018-06-03T13:04:18.180Z,61.16
2018-06-03T13:05:18.187Z,62.91
2018-06-03T13:06:18.238Z,62.71
2018-06-03T13:07:18.201Z,62.04
2018-06-03T13:08:18.211Z,61.84
2018-06-03T13:09:18.212Z,60.74
2018-06-03T13:10:18.221Z,60.94
2018-06-03T13:11:18.231Z,61.04
2018-06-03T13:12:18.235Z,62.19
2018-06-03T13:13:18.252Z,62.65
2018-06-03T13:14:18.246Z,62.29
2018-06-03T13:15:18.249Z,62.59
2018-06-03T13:16:18.255Z,61.65
2018-06-03T13:17:18.304Z,62.62
2018-06-03T13:18:18.273Z,60.55
2018-06-03T13:19:18.272Z,60.45
2018-06-03T13:20:18.300Z,60.94
2018-06-03T13:21:18.287Z,60.77
2018-06-03T13:22:18.300Z,64.01
2018-06-03T13:23:18.305Z,59.92
2018-06-03T13:24:18.330Z,60.41
2018-06-03T13:25:18.315Z,60.31
2018-06-03T13:26:18.314Z,60.61
2018-06-03T13:27:18.323Z,60.80
2018-06-03T13:28:18.326Z,60.19
2018-06-03T13:29:18.334Z,59.70
2018-06-03T13:30:18.334Z,61.65
2018-06-03T13:31:18.341Z,60.87
2018-06-03T13:32:18.347Z,62.04
2018-06-03T13:33:18.352Z,62.49
2018-06-03T13:34:18.356Z,62.91
2018-06-03T13:35:18.362Z,64.56
2018-06-03T13:36:18.367Z,63.39
2018-06-03T13:37:18.375Z,67.05
2018-06-03T13:38:18.379Z,62.19
2018-06-03T13:39:18.386Z,63.65
2018-06-03T13:40:18.396Z,63.95
2018-06-03T13:41:18.386Z,63.26
2018-06-03T13:42:18.397Z,63.85
2018-06-03T13:43:18.391Z,63.07
2018-06-03T13:44:18.405Z,62.19
2018-06-03T13:45:18.414Z,62.01
2018-06-03T13:46:18.423Z,61.91
2018-06-03T13:47:18.422Z,62.88
2018-06-03T13:48:18.425Z,61.78
2018-06-03T13:49:18.426Z,60.81
2018-06-03T13:50:18.434Z,61.98
2018-06-03T13:51:18.435Z,62.36
2018-06-03T13:52:18.444Z,64.04
2018-06-03T13:53:18.450Z,61.39
2018-06-03T13:54:18.451Z,62.65
2018-06-03T13:55:18.476Z,63.04
2018-06-03T13:56:18.470Z,60.81
2018-06-03T13:57:18.488Z,62.98
2018-06-03T13:58:18.470Z,61.22
2018-06-03T13:59:18.493Z,62.19
2018-06-03T14:00:18.475Z,62.85
2018-06-03T14:01:18.482Z,62.16
2018-06-03T14:02:18.481Z,62.16
2018-06-03T14:03:18.482Z,62.65
2018-06-03T14:04:18.493Z,63.40
2018-06-03T14:05:18.503Z,63.49
2018-06-03T14:06:18.511Z,62.62
2018-06-03T14:07:18.508Z,62.23
2018-06-03T14:08:18.512Z,62.52
2018-06-03T14:09:18.511Z,62.52
2018-06-03T14:10:18.517Z,62.33
2018-06-03T14:11:18.530Z,63.10
2018-06-03T14:12:18.541Z,62.91
2018-06-03T14:13:18.526Z,63.98
2018-06-03T14:14:18.534Z,62.46
2018-06-03T14:15:18.536Z,62.95
2018-06-03T14:16:18.543Z,60.00
2018-06-03T14:17:18.546Z,59.33
2018-06-03T14:18:18.551Z,60.78
2018-06-03T14:19:18.553Z,61.68
2018-06-03T14:20:18.544Z,60.61
2018-06-03T14:21:18.556Z,60.42
2018-06-03T14:22:18.566Z,60.52
2018-06-03T14:23:18.553Z,60.42
2018-06-03T14:24:18.570Z,60.84
2018-06-03T14:25:18.564Z,60.16
2018-06-03T14:26:18.593Z,59.36
2018-06-03T14:27:18.576Z,62.29
2018-06-03T14:28:18.582Z,59.55
2018-06-03T14:29:18.583Z,60.32
2018-06-03T14:30:18.605Z,60.81
2018-06-03T14:31:18.594Z,59.74
2018-06-03T14:32:18.599Z,59.55
2018-06-03T14:33:18.597Z,58.67
2018-06-03T14:34:18.603Z,60.61
2018-06-03T14:35:18.604Z,60.32
2018-06-03T14:36:18.608Z,60.03
2018-06-03T14:37:18.617Z,60.30
2018-06-03T14:38:18.620Z,59.74
2018-06-03T14:39:18.622Z,61.10
2018-06-03T14:40:18.611Z,59.42
2018-06-03T14:41:18.651Z,59.52
2018-06-03T14:42:18.626Z,59.23
2018-06-03T14:43:18.630Z,62.46
2018-06-03T14:44:18.635Z,65.37
2018-06-03T14:45:18.640Z,61.88
2018-06-03T14:46:18.654Z,59.74
2018-06-03T14:47:18.642Z,59.61
2018-06-03T14:48:18.652Z,58.65
2018-06-03T14:49:18.646Z,58.94
2018-06-03T14:50:18.649Z,58.16
2018-06-03T14:51:18.652Z,59.91
2018-06-03T14:52:18.655Z,60.81
2018-06-03T14:53:18.658Z,60.97
2018-06-03T14:54:18.663Z,60.10
2018-06-03T14:55:18.664Z,59.52
2018-06-03T14:56:18.668Z,58.36
2018-06-03T14:57:18.701Z,58.94
2018-06-03T14:58:18.684Z,59.42
2018-06-03T14:59:18.630Z,59.13
2018-06-03T15:00:18.645Z,62.33
2018-06-03T15:01:18.640Z,60.30
2018-06-03T15:02:18.639Z,61.75
2018-06-03T15:03:18.635Z,63.01
2018-06-03T15:04:18.639Z,60.88
2018-06-03T15:05:18.645Z,60.85
2018-06-03T15:06:18.647Z,61.55
2018-06-03T15:07:18.666Z,62.23
2018-06-03T15:08:18.651Z,63.40
2018-06-03T15:09:18.652Z,63.10
2018-06-03T15:10:18.652Z,62.62
2018-06-03T15:11:18.658Z,61.36
2018-06-03T15:12:18.663Z,59.91
2018-06-03T15:13:18.659Z,59.71
2018-06-03T15:14:18.667Z,62.23
2018-06-03T15:15:18.663Z,61.46
2018-06-03T15:16:18.665Z,60.65
2018-06-03T15:17:18.665Z,60.27
2018-06-03T15:18:18.672Z,61.43
2018-06-03T15:19:18.683Z,62.10
2018-06-03T15:20:18.710Z,61.43
2018-06-03T15:21:18.701Z,61.24
2018-06-03T15:22:18.709Z,60.10
2018-06-03T15:23:18.715Z,60.17
2018-06-03T15:24:18.738Z,59.52
2018-06-03T15:25:18.719Z,59.69
2018-06-03T15:26:18.750Z,59.20
2018-06-03T15:27:18.759Z,59.59
2018-06-03T15:28:18.831Z,60.30
2018-06-03T15:29:18.739Z,58.91